Airfield :
LOGIN :

Register | Disclaimer

   EN    FR    IT 

 










Legend :    VFR   Marginal VFR   IFR   Intensive IFR   Very Intensive IFR
Visi :
Ceiling :
>= 8 km
>= 3000ft
5 to 8 km
1000 to 3000 ft
1500m to 5 km
500 to 1000 ft
800 to 1500m
200 to 500 ft
< 800m
< 200 ft
Symbols :   Thunderstorms  Fog  Heavy snow  Heavy precipitations  Wind > 20 kt
SIGMETs :     Misc.  Thunderstorms  Icing  Turbulence  Mountain Waves  Volcanic Ashes






- Airport Elevation : 215 ft
- IATA code : ABZ


EGPD - Aberdeen / Dyce

CURRENT METAR :
  • 041450Z AUTO 19011KT 9999 BKN043 10/04 Q1013 NOSIG

EXPIRED METARs :
  • 041420Z AUTO 18012KT 9999 SCT037 BKN046 10/04 Q1013 NOSIG
  • 041350Z AUTO 19012KT 150V220 9999 BKN039 10/04 Q1013
  • 041320Z AUTO 21015KT 9999 SCT040 11/03 Q1013 NOSIG
  • 041250Z AUTO 21010KT 170V240 9999 BKN032 BKN043 10/04 Q1013
  • 041220Z AUTO 20013KT 180V240 9999 SCT031 BKN037 10/03 Q1013 NOSIG

TAF TAF EGPD
Valid from the 04 at 12:00 until the 05 at 12:00 UTC


041055Z 0412/0512 22009KT 9999 FEW030
PROB30
TEMPO 0412/0418 20015G25KT
PROB40
TEMPO 0421/0506 19018G28KT
BECMG 0510/0512 19018G28KT



MET'MAP, your aeronautical weather chart ! - Copyright ORBIFLY December 2007 - Disclaimer

ORBIFLY MET'MAP TEAM :

Programming & Development : Alexandra Zaïnal
Concept & original design : Baudouin d'Aumeries
Assistance for programming : Marc-Olivier Méhu
Technical & hardware support : Manuel Goepfert

Contact : metmap@orbifly.com




SOURCES & CREDITS :

   NOAA